createdAt,value
2019-03-27T00:00:47.969Z,14.03
2019-03-27T00:04:52.946Z,23.57
2019-03-27T00:08:57.985Z,17.10
2019-03-27T00:13:02.977Z,15.00
2019-03-27T00:17:07.989Z,15.67
2019-03-27T00:21:13.010Z,16.53
2019-03-27T00:25:17.987Z,16.37
2019-03-27T00:29:22.985Z,13.90
2019-03-27T00:33:27.982Z,15.87
2019-03-27T00:37:34.081Z,14.10
2019-03-27T00:41:39.085Z,13.93
2019-03-27T00:45:44.085Z,14.10
2019-03-27T00:49:49.070Z,12.87
2019-03-27T00:53:54.068Z,12.50
2019-03-27T00:57:59.086Z,13.73
2019-03-27T01:02:04.146Z,11.50
2019-03-27T01:06:09.382Z,11.43
2019-03-27T01:10:14.702Z,11.50
2019-03-27T01:14:19.702Z,11.17
2019-03-27T01:18:24.780Z,11.13
2019-03-27T01:22:29.773Z,10.63
2019-03-27T01:26:34.816Z,9.77
2019-03-27T01:30:39.782Z,8.90
2019-03-27T01:34:44.846Z,9.90
2019-03-27T01:38:49.842Z,9.80
2019-03-27T01:42:54.829Z,9.67
2019-03-27T01:46:59.827Z,10.77
2019-03-27T01:51:04.905Z,10.27
2019-03-27T01:55:10.042Z,10.63
2019-03-27T01:59:15.042Z,11.53
2019-03-27T02:03:20.040Z,12.07
2019-03-27T02:07:25.044Z,13.17
2019-03-27T02:11:30.033Z,14.50
2019-03-27T02:15:35.010Z,13.60
2019-03-27T02:19:40.030Z,13.87
2019-03-27T02:23:45.037Z,12.67
2019-03-27T02:27:50.038Z,13.93
2019-03-27T02:31:55.052Z,11.07
2019-03-27T02:36:00.017Z,11.17
2019-03-27T02:40:07.270Z,11.07
2019-03-27T02:44:12.266Z,13.30
2019-03-27T02:48:17.275Z,12.20
2019-03-27T02:52:22.391Z,12.57
2019-03-27T02:56:27.450Z,11.73
2019-03-27T03:00:33.243Z,13.37
2019-03-27T03:04:38.240Z,13.87
2019-03-27T03:08:43.239Z,14.97
2019-03-27T03:12:48.305Z,17.23
2019-03-27T03:16:53.298Z,19.03
2019-03-27T03:20:58.278Z,17.70
2019-03-27T03:25:05.480Z,17.97
2019-03-27T03:29:10.478Z,18.07
2019-03-27T03:33:15.476Z,16.37
2019-03-27T03:37:20.471Z,18.07
2019-03-27T03:41:25.451Z,18.17
2019-03-27T03:45:30.451Z,17.77
2019-03-27T03:49:35.462Z,17.03
2019-03-27T03:53:40.537Z,16.80
2019-03-27T03:57:47.073Z,16.37
2019-03-27T04:01:54.152Z,17.40
2019-03-27T04:05:59.134Z,17.70
2019-03-27T04:10:05.369Z,17.93
2019-03-27T04:14:10.372Z,17.43
2019-03-27T04:18:15.383Z,16.93
2019-03-27T04:22:20.365Z,18.10
2019-03-27T04:26:25.342Z,16.50
2019-03-27T04:30:30.341Z,15.83
2019-03-27T04:34:35.342Z,15.80
2019-03-27T04:38:40.345Z,16.70
2019-03-27T04:42:45.345Z,20.03
2019-03-27T04:46:50.321Z,17.90
2019-03-27T04:50:55.322Z,17.93
2019-03-27T04:55:00.428Z,16.07
2019-03-27T04:59:05.386Z,17.20
2019-03-27T05:03:10.382Z,22.13
2019-03-27T05:07:15.353Z,18.57
2019-03-27T05:11:20.349Z,18.73
2019-03-27T05:15:25.464Z,14.70
2019-03-27T05:19:30.449Z,15.53
2019-03-27T05:23:35.447Z,17.13
2019-03-27T05:27:40.443Z,16.80
2019-03-27T05:31:45.451Z,16.73
2019-03-27T05:35:50.553Z,15.27
2019-03-27T05:39:55.554Z,16.07
2019-03-27T05:44:00.548Z,14.93
2019-03-27T05:48:05.593Z,14.47
2019-03-27T05:52:10.538Z,15.63
2019-03-27T05:56:15.537Z,15.13
2019-03-27T06:00:20.536Z,15.03
2019-03-27T06:04:25.563Z,15.30
2019-03-27T06:08:30.633Z,15.20
2019-03-27T06:12:35.774Z,14.30
2019-03-27T06:16:40.782Z,13.67
2019-03-27T06:20:45.797Z,13.47
2019-03-27T06:24:52.557Z,12.33
2019-03-27T06:28:57.554Z,12.90
2019-03-27T06:33:02.536Z,13.13
2019-03-27T06:37:07.544Z,14.33
2019-03-27T06:41:12.537Z,16.37
2019-03-27T06:45:17.910Z,17.37
2019-03-27T06:49:22.929Z,15.97
2019-03-27T06:53:27.944Z,11.00
2019-03-27T06:57:32.988Z,9.43
2019-03-27T07:01:37.978Z,8.43
2019-03-27T07:05:43.108Z,8.33
2019-03-27T07:09:48.118Z,10.40
2019-03-27T07:13:53.122Z,10.00
2019-03-27T07:17:58.101Z,12.47
2019-03-27T07:22:03.114Z,16.03
2019-03-27T07:26:08.133Z,18.43
2019-03-27T07:30:13.566Z,22.83
2019-03-27T07:34:18.563Z,24.20
2019-03-27T07:38:23.859Z,24.97
2019-03-27T07:42:29.128Z,24.37
2019-03-27T07:46:34.100Z,24.17
2019-03-27T07:50:39.101Z,23.70
2019-03-27T07:54:44.110Z,23.63
2019-03-27T07:58:49.174Z,24.50
2019-03-27T08:02:54.177Z,21.73
2019-03-27T08:06:59.172Z,21.67
2019-03-27T08:11:04.238Z,23.03
2019-03-27T08:15:09.673Z,23.17
2019-03-27T08:19:15.783Z,21.80
2019-03-27T08:23:20.789Z,20.53
2019-03-27T08:27:25.781Z,21.43
2019-03-27T08:31:30.773Z,19.87
2019-03-27T08:35:35.839Z,18.63
2019-03-27T08:39:40.838Z,18.43
2019-03-27T08:43:45.966Z,17.83
2019-03-27T08:47:50.966Z,17.97
2019-03-27T08:51:56.244Z,16.77
2019-03-27T08:56:01.302Z,14.73
2019-03-27T09:00:08.995Z,12.07
2019-03-27T09:04:14.246Z,10.70
2019-03-27T09:08:19.694Z,9.43
2019-03-27T09:12:24.981Z,10.33
2019-03-27T09:16:30.294Z,9.23
2019-03-27T09:20:35.709Z,9.43
2019-03-27T09:24:40.957Z,10.83
2019-03-27T09:28:46.225Z,14.27
2019-03-27T09:32:51.522Z,13.73
2019-03-27T09:36:57.184Z,15.67
2019-03-27T09:41:02.757Z,16.30
2019-03-27T09:45:11.754Z,18.13
2019-03-27T09:49:17.031Z,17.83
2019-03-27T09:53:22.349Z,17.43
2019-03-27T09:57:27.644Z,15.00
2019-03-27T10:01:32.941Z,15.03
2019-03-27T10:05:38.258Z,13.43
2019-03-27T10:09:43.521Z,12.27
2019-03-27T10:13:48.861Z,13.60
2019-03-27T10:17:54.328Z,13.57
2019-03-27T10:21:59.590Z,14.10
2019-03-27T10:26:05.057Z,13.87
2019-03-27T10:30:10.577Z,15.33
2019-03-27T10:34:15.842Z,15.83
2019-03-27T10:38:21.125Z,14.53
2019-03-27T10:42:26.412Z,13.93
2019-03-27T10:46:31.695Z,13.47
2019-03-27T10:50:37.050Z,13.37
2019-03-27T10:54:42.425Z,13.83
2019-03-27T10:58:47.682Z,13.97
2019-03-27T11:02:52.954Z,13.17
2019-03-27T11:06:58.314Z,15.27
2019-03-27T11:11:03.596Z,14.13
2019-03-27T11:15:10.984Z,12.93
2019-03-27T11:19:16.304Z,12.27
2019-03-27T11:23:21.588Z,12.30
2019-03-27T11:27:26.874Z,14.33
2019-03-27T11:31:32.167Z,14.13
2019-03-27T11:35:37.598Z,12.10
2019-03-27T11:39:43.231Z,13.10
2019-03-27T11:43:54.981Z,13.83
2019-03-27T11:47:59.891Z,13.00
2019-03-27T11:52:05.344Z,14.43
2019-03-27T11:56:11.108Z,16.13
2019-03-27T12:00:19.646Z,16.27
2019-03-27T12:04:34.620Z,16.30
2019-03-27T12:08:46.103Z,15.17
2019-03-27T12:12:54.284Z,15.00
2019-03-27T12:17:02.889Z,14.00
2019-03-27T12:21:12.130Z,14.40
2019-03-27T12:25:27.310Z,13.70
2019-03-27T12:29:32.806Z,13.70
2019-03-27T12:33:41.458Z,15.33
2019-03-27T12:37:53.976Z,15.30
2019-03-27T12:42:02.101Z,12.53
2019-03-27T12:46:11.815Z,13.00
2019-03-27T12:50:20.034Z,12.73
2019-03-27T12:54:27.288Z,12.73
2019-03-27T12:58:32.676Z,14.63
2019-03-27T13:02:39.601Z,15.93
2019-03-27T13:06:55.580Z,12.63
2019-03-27T13:10:59.414Z,13.63
2019-03-27T13:15:09.478Z,12.13
2019-03-27T13:19:20.926Z,11.47
2019-03-27T13:23:32.682Z,11.83
2019-03-27T13:27:41.465Z,13.80
2019-03-27T13:31:51.230Z,13.37
2019-03-27T13:35:59.458Z,12.57
2019-03-27T13:40:09.766Z,11.23
2019-03-27T13:44:36.849Z,11.83
2019-03-27T13:48:40.910Z,11.70
2019-03-27T13:52:47.494Z,9.30
2019-03-27T13:56:54.552Z,9.33
2019-03-27T14:01:08.737Z,9.23
2019-03-27T14:05:10.286Z,8.30
2019-03-27T14:09:20.163Z,9.20
2019-03-27T14:13:27.285Z,8.97
2019-03-27T14:17:37.141Z,9.33
2019-03-27T14:21:54.447Z,10.53
2019-03-27T14:26:02.887Z,9.10
2019-03-27T14:30:12.635Z,9.50
2019-03-27T14:34:24.419Z,9.23
2019-03-27T14:38:32.956Z,9.57
2019-03-27T14:42:45.476Z,8.00
2019-03-27T14:46:54.389Z,8.90
2019-03-27T14:51:06.012Z,7.53
2019-03-27T14:55:18.635Z,7.50
2019-03-27T14:59:28.802Z,7.63
2019-03-27T15:03:38.020Z,6.83
2019-03-27T15:07:55.232Z,6.50
2019-03-27T15:12:12.077Z,6.27
2019-03-27T15:16:22.880Z,6.57
2019-03-27T15:20:34.772Z,6.43
2019-03-27T15:24:41.436Z,6.27
2019-03-27T15:28:51.123Z,6.60
2019-03-27T15:33:01.353Z,6.43
2019-03-27T15:37:12.661Z,7.10
2019-03-27T15:41:23.320Z,6.33
2019-03-27T15:45:34.123Z,7.37
2019-03-27T15:49:41.614Z,6.83
2019-03-27T15:53:51.353Z,7.40
2019-03-27T15:57:57.857Z,8.07
2019-03-27T16:02:09.939Z,6.70
2019-03-27T16:06:21.931Z,7.23
2019-03-27T16:10:34.470Z,7.70
2019-03-27T16:14:46.192Z,7.23
2019-03-27T16:19:04.954Z,8.30
2019-03-27T16:23:11.555Z,6.90
2019-03-27T16:27:24.287Z,7.50
2019-03-27T16:31:33.993Z,9.03
2019-03-27T16:35:41.185Z,7.37
2019-03-27T16:39:52.467Z,8.03
2019-03-27T16:44:00.699Z,7.70
2019-03-27T16:48:08.691Z,7.93
2019-03-27T16:52:18.818Z,7.60
2019-03-27T16:56:30.179Z,8.90
2019-03-27T17:00:43.909Z,8.07
2019-03-27T17:04:49.470Z,7.87
2019-03-27T17:08:58.828Z,7.93
2019-03-27T17:13:06.327Z,9.20
2019-03-27T17:17:14.865Z,7.67
2019-03-27T17:21:23.483Z,8.47
2019-03-27T17:25:31.247Z,8.70
2019-03-27T17:29:43.841Z,8.00
2019-03-27T17:33:52.787Z,8.47
2019-03-27T17:42:35.108Z,8.80
2019-03-27T17:46:50.161Z,9.33
2019-03-27T17:50:56.897Z,9.50
2019-03-27T17:55:07.314Z,10.07
2019-03-27T17:59:14.706Z,10.00
2019-03-27T18:03:22.559Z,8.80
2019-03-27T18:07:30.328Z,9.07
2019-03-27T18:11:39.263Z,9.07
2019-03-27T18:15:46.276Z,9.47
2019-03-27T18:19:53.727Z,7.90
2019-03-27T18:24:00.869Z,9.77
2019-03-27T18:28:09.473Z,9.67
2019-03-27T18:32:23.962Z,9.67
2019-03-27T18:36:32.001Z,9.77
2019-03-27T18:40:44.369Z,10.70
2019-03-27T18:44:53.479Z,9.17
2019-03-27T18:49:04.624Z,10.13
2019-03-27T18:53:10.018Z,9.77
2019-03-27T18:57:25.294Z,11.40
2019-03-27T19:01:37.572Z,12.13
2019-03-27T19:05:47.372Z,10.33
2019-03-27T19:09:56.666Z,11.27
2019-03-27T19:14:05.423Z,12.70
2019-03-27T19:18:14.462Z,11.40
2019-03-27T19:22:28.580Z,12.33
2019-03-27T19:26:35.626Z,11.57
2019-03-27T19:30:45.144Z,12.70
2019-03-27T19:34:54.580Z,13.20
2019-03-27T19:39:01.165Z,15.43
2019-03-27T19:43:10.268Z,14.10
2019-03-27T19:47:18.989Z,14.37
2019-03-27T19:51:26.674Z,13.90
2019-03-27T19:55:40.075Z,13.33
2019-03-27T19:59:48.434Z,14.93
2019-03-27T20:03:59.843Z,15.30
2019-03-27T20:08:07.892Z,13.53
2019-03-27T20:12:15.981Z,20.17
2019-03-27T20:16:21.946Z,13.48
2019-03-27T20:20:28.729Z,14.47
2019-03-27T20:24:41.101Z,13.10
2019-03-27T20:28:49.203Z,13.40
2019-03-27T20:32:56.352Z,11.73
2019-03-27T20:37:02.114Z,12.00
2019-03-27T20:41:09.249Z,13.63
2019-03-27T20:45:19.391Z,13.63
2019-03-27T20:49:32.396Z,12.37
2019-03-27T20:53:45.959Z,11.60
2019-03-27T20:57:54.155Z,11.17
2019-03-27T21:02:05.753Z,10.80
2019-03-27T21:06:14.339Z,10.00
2019-03-27T21:10:20.822Z,11.20
2019-03-27T21:14:28.418Z,10.53
2019-03-27T21:18:35.658Z,10.00
2019-03-27T21:22:45.770Z,10.40
2019-03-27T21:26:55.546Z,10.13
2019-03-27T21:31:02.297Z,11.00
2019-03-27T21:35:10.739Z,10.53
2019-03-27T21:39:19.156Z,11.77
2019-03-27T21:43:24.612Z,9.58
2019-03-27T21:47:30.147Z,10.30
2019-03-27T21:51:37.649Z,10.60
2019-03-27T21:55:46.277Z,11.53
2019-03-27T21:59:58.305Z,11.53
2019-03-27T22:04:16.843Z,11.23
2019-03-27T22:08:31.007Z,12.20
2019-03-27T22:12:42.619Z,11.50
2019-03-27T22:16:48.060Z,12.50
2019-03-27T22:21:00.997Z,12.63
2019-03-27T22:25:09.518Z,11.63
2019-03-27T22:29:15.114Z,12.17
2019-03-27T22:33:27.393Z,13.53
2019-03-27T22:37:34.073Z,14.37
2019-03-27T22:41:40.942Z,14.27
2019-03-27T22:45:47.758Z,14.47
2019-03-27T22:49:55.966Z,13.20
2019-03-27T22:54:03.060Z,13.10
2019-03-27T22:58:13.084Z,14.30
2019-03-27T23:02:27.722Z,14.23
2019-03-27T23:06:37.855Z,13.50
2019-03-27T23:10:47.605Z,13.37
2019-03-27T23:15:04.287Z,13.93
2019-03-27T23:19:05.780Z,13.30
2019-03-27T23:23:14.324Z,13.10
2019-03-27T23:27:24.686Z,12.83
2019-03-27T23:31:32.928Z,12.30
2019-03-27T23:35:41.528Z,13.20
2019-03-27T23:39:48.825Z,12.33
2019-03-27T23:43:59.579Z,13.47
2019-03-27T23:48:08.426Z,13.30
2019-03-27T23:52:19.987Z,13.17
2019-03-27T23:56:31.125Z,13.57
